createdAt,value
2019-01-31T00:00:14.749Z,81.23
2019-01-31T00:01:10.041Z,87.80
2019-01-31T00:02:04.563Z,81.33
2019-01-31T00:02:53.365Z,88.37
2019-01-31T00:03:30.316Z,82.37
2019-01-31T00:04:30.745Z,91.70
2019-01-31T00:05:23.521Z,86.27
2019-01-31T00:06:06.664Z,87.47
2019-01-31T00:07:04.086Z,88.73
2019-01-31T00:08:07.516Z,84.10
2019-01-31T00:08:56.088Z,86.60
2019-01-31T00:09:41.900Z,85.13
2019-01-31T00:10:49.944Z,87.03
2019-01-31T00:11:35.675Z,88.03
2019-01-31T00:12:29.348Z,85.17
2019-01-31T00:13:24.452Z,83.70
2019-01-31T00:14:16.469Z,83.00
2019-01-31T00:14:58.995Z,89.93
2019-01-31T00:16:04.223Z,85.60
2019-01-31T00:17:01.963Z,82.03
2019-01-31T00:17:48.393Z,88.27
2019-01-31T00:18:25.321Z,87.93
2019-01-31T00:19:32.349Z,94.07
2019-01-31T00:20:16.279Z,85.93
2019-01-31T00:21:01.986Z,92.60
2019-01-31T00:21:47.694Z,94.90
2019-01-31T00:22:55.550Z,91.37
2019-01-31T00:23:40.937Z,94.87
2019-01-31T00:24:26.631Z,95.93
2019-01-31T00:25:20.138Z,92.60
2019-01-31T00:26:25.496Z,84.57
2019-01-31T00:27:20.415Z,88.37
2019-01-31T00:28:13.428Z,87.13
2019-01-31T00:29:01.970Z,86.37
2019-01-31T00:29:41.367Z,83.97
2019-01-31T00:30:49.489Z,93.57
2019-01-31T00:32:03.983Z,86.53
2019-01-31T00:32:46.315Z,84.80
2019-01-31T00:33:29.291Z,95.37
2019-01-31T00:34:32.018Z,85.47
2019-01-31T00:35:32.791Z,90.70
2019-01-31T00:36:33.701Z,88.77
2019-01-31T00:37:31.945Z,90.47
2019-01-31T00:38:17.094Z,95.67
2019-01-31T00:39:10.937Z,102.30
2019-01-31T00:40:19.216Z,105.50
2019-01-31T00:41:14.208Z,98.07
2019-01-31T00:41:51.097Z,94.90
2019-01-31T00:42:51.678Z,98.50
2019-01-31T00:43:46.456Z,96.33
2019-01-31T00:44:34.965Z,92.70
2019-01-31T00:45:18.047Z,127.90
2019-01-31T00:46:17.129Z,133.67
2019-01-31T00:47:02.870Z,128.03
2019-01-31T00:48:01.929Z,124.47
2019-01-31T00:49:07.716Z,105.57
2019-01-31T00:49:47.258Z,106.33
2019-01-31T00:50:38.808Z,113.97
2019-01-31T00:51:35.070Z,116.70
2019-01-31T00:52:14.732Z,111.73
2019-01-31T00:53:12.252Z,110.40
2019-01-31T00:54:09.952Z,108.23
2019-01-31T00:54:52.881Z,108.13
2019-01-31T00:55:35.314Z,120.87
2019-01-31T00:56:34.631Z,118.00
2019-01-31T00:57:14.463Z,114.37
2019-01-31T00:58:18.677Z,118.13
2019-01-31T00:59:22.815Z,111.93
2019-01-31T01:00:17.831Z,111.43
2019-01-31T01:01:12.612Z,115.90
2019-01-31T01:01:54.999Z,121.87
2019-01-31T01:02:40.644Z,116.97
2019-01-31T01:03:29.339Z,101.00
2019-01-31T01:04:31.806Z,99.27
2019-01-31T01:05:28.292Z,102.30
2019-01-31T01:06:19.981Z,100.60
2019-01-31T01:07:17.082Z,98.53
2019-01-31T01:08:02.503Z,101.53
2019-01-31T01:08:39.345Z,99.20
2019-01-31T01:09:28.620Z,102.37
2019-01-31T01:10:28.184Z,104.00
2019-01-31T01:11:25.950Z,90.47
2019-01-31T01:12:34.201Z,100.00
2019-01-31T01:13:22.772Z,102.13
2019-01-31T01:14:17.294Z,105.77
2019-01-31T01:14:57.265Z,107.93
2019-01-31T01:15:36.734Z,114.63
2019-01-31T01:16:22.219Z,106.23
2019-01-31T01:17:11.197Z,103.93
2019-01-31T01:17:48.122Z,105.10
2019-01-31T01:18:37.130Z,109.33
2019-01-31T01:19:41.020Z,99.30
2019-01-31T01:20:23.926Z,99.53
2019-01-31T01:21:38.052Z,100.67
2019-01-31T01:22:23.257Z,103.03
2019-01-31T01:23:11.722Z,98.53
2019-01-31T01:24:21.727Z,100.47
2019-01-31T01:25:36.211Z,99.20
2019-01-31T01:26:21.990Z,88.33
2019-01-31T01:27:10.788Z,96.07
2019-01-31T01:27:53.446Z,95.53
2019-01-31T01:28:47.768Z,100.33
2019-01-31T01:29:30.793Z,98.13
2019-01-31T01:30:34.611Z,94.77
2019-01-31T01:31:26.347Z,99.23
2019-01-31T01:32:23.447Z,97.73
2019-01-31T01:33:18.444Z,96.10
2019-01-31T01:34:15.166Z,106.33
2019-01-31T01:35:18.441Z,105.83
2019-01-31T01:35:58.574Z,101.50
2019-01-31T01:36:59.440Z,106.57
2019-01-31T01:37:41.879Z,106.00
2019-01-31T01:38:51.678Z,105.50
2019-01-31T01:39:31.939Z,106.70
2019-01-31T01:40:42.195Z,105.57
2019-01-31T01:41:39.773Z,104.57
2019-01-31T01:42:40.391Z,104.63
2019-01-31T01:43:41.035Z,96.77
2019-01-31T01:44:24.075Z,103.57
2019-01-31T01:45:17.258Z,102.20
2019-01-31T01:46:11.966Z,93.63
2019-01-31T01:47:13.803Z,92.53
2019-01-31T01:47:53.473Z,96.23
2019-01-31T01:48:33.434Z,106.93
2019-01-31T01:49:21.986Z,109.87
2019-01-31T01:50:18.256Z,111.93
2019-01-31T01:51:24.786Z,96.73
2019-01-31T01:52:24.288Z,97.40
2019-01-31T01:53:19.298Z,99.00
2019-01-31T01:54:19.885Z,100.73
2019-01-31T01:55:11.370Z,98.60
2019-01-31T01:56:10.537Z,102.83
2019-01-31T01:57:08.539Z,93.43
2019-01-31T01:58:03.352Z,96.70
2019-01-31T01:59:01.874Z,103.13
2019-01-31T02:00:02.818Z,97.90
2019-01-31T02:00:56.030Z,104.00
2019-01-31T02:02:04.282Z,104.80
2019-01-31T02:03:09.747Z,96.80
2019-01-31T02:03:58.698Z,100.40
2019-01-31T02:05:04.906Z,179.03
2019-01-31T02:05:53.713Z,135.20
2019-01-31T02:06:57.517Z,110.13
2019-01-31T02:07:40.163Z,99.70
2019-01-31T02:08:22.937Z,99.47
2019-01-31T02:09:09.761Z,92.30
2019-01-31T02:10:08.922Z,94.10
2019-01-31T02:10:57.647Z,94.77
2019-01-31T02:11:57.226Z,95.87
2019-01-31T02:13:17.269Z,96.30
2019-01-31T02:13:59.855Z,99.00
2019-01-31T02:15:10.064Z,101.47
2019-01-31T02:15:58.790Z,92.17
2019-01-31T02:17:01.936Z,100.97
2019-01-31T02:17:47.290Z,101.17
2019-01-31T02:18:24.229Z,92.43
2019-01-31T02:19:07.228Z,101.43
2019-01-31T02:20:09.414Z,105.00
2019-01-31T02:20:57.734Z,113.87
2019-01-31T02:22:03.849Z,105.17
2019-01-31T02:23:04.879Z,105.73
2019-01-31T02:23:50.591Z,92.80
2019-01-31T02:24:44.951Z,102.77
2019-01-31T02:25:21.851Z,103.27
2019-01-31T02:26:30.559Z,103.33
2019-01-31T02:27:28.876Z,106.20
2019-01-31T02:28:17.465Z,99.40
2019-01-31T02:29:00.168Z,104.57
2019-01-31T02:29:48.231Z,102.33
2019-01-31T02:30:27.929Z,102.13
2019-01-31T02:31:23.158Z,101.43
2019-01-31T02:32:14.665Z,96.10
2019-01-31T02:33:01.176Z,103.37
2019-01-31T02:33:55.904Z,96.37
2019-01-31T02:34:41.916Z,101.00
2019-01-31T02:35:27.873Z,100.00
2019-01-31T02:36:22.668Z,103.67
2019-01-31T02:36:59.584Z,102.43
2019-01-31T02:37:54.399Z,113.47
2019-01-31T02:38:46.247Z,108.07
2019-01-31T02:39:43.164Z,102.47
2019-01-31T02:40:44.761Z,102.77
2019-01-31T02:41:21.644Z,108.63
2019-01-31T02:42:16.356Z,104.57
2019-01-31T02:43:19.897Z,115.60
2019-01-31T02:44:02.613Z,104.03
2019-01-31T02:44:47.835Z,106.03
2019-01-31T02:45:48.699Z,105.67
2019-01-31T02:46:42.874Z,102.67
2019-01-31T02:47:31.855Z,103.63
2019-01-31T02:48:27.238Z,114.53
2019-01-31T02:49:24.524Z,105.83
2019-01-31T02:50:20.693Z,110.17
2019-01-31T02:51:15.566Z,95.40
2019-01-31T02:52:04.250Z,101.73
2019-01-31T02:53:13.433Z,105.90
2019-01-31T02:53:55.976Z,92.67
2019-01-31T02:54:47.736Z,102.03
2019-01-31T02:55:39.129Z,99.07
2019-01-31T02:56:15.958Z,105.23
2019-01-31T02:57:04.970Z,101.60
2019-01-31T02:58:04.522Z,108.47
2019-01-31T02:58:53.087Z,102.70
2019-01-31T02:59:55.685Z,98.57
2019-01-31T03:00:50.387Z,100.27
2019-01-31T03:01:52.768Z,103.20
2019-01-31T03:02:32.468Z,100.30
2019-01-31T03:03:09.364Z,102.53
2019-01-31T03:04:07.627Z,104.27
2019-01-31T03:04:45.595Z,107.10
2019-01-31T03:05:34.395Z,103.47
2019-01-31T03:06:11.215Z,115.17
2019-01-31T03:07:24.333Z,114.77
2019-01-31T03:08:16.094Z,102.03
2019-01-31T03:09:31.933Z,110.37
2019-01-31T03:10:23.957Z,98.93
2019-01-31T03:11:18.646Z,102.77
2019-01-31T03:12:01.991Z,106.97
2019-01-31T03:13:09.008Z,115.67
2019-01-31T03:13:54.705Z,96.97
2019-01-31T03:14:31.826Z,98.70
2019-01-31T03:15:17.613Z,103.07
2019-01-31T03:16:06.206Z,105.47
2019-01-31T03:16:57.876Z,94.50
2019-01-31T03:18:15.992Z,99.87
2019-01-31T03:18:58.762Z,103.47
2019-01-31T03:19:44.504Z,104.97
2019-01-31T03:20:29.746Z,115.53
2019-01-31T03:21:49.350Z,116.83
2019-01-31T03:22:28.712Z,107.97
2019-01-31T03:23:08.402Z,99.20
2019-01-31T03:23:50.835Z,108.47
2019-01-31T03:24:54.700Z,107.53
2019-01-31T03:25:43.121Z,102.27
2019-01-31T03:26:20.023Z,116.87
2019-01-31T03:27:05.721Z,111.00
2019-01-31T03:28:00.775Z,110.33
2019-01-31T03:29:18.207Z,110.23
2019-01-31T03:30:10.195Z,102.63
2019-01-31T03:31:24.719Z,110.70
2019-01-31T03:32:31.923Z,105.67
2019-01-31T03:33:48.371Z,100.70
2019-01-31T03:34:33.952Z,104.23
2019-01-31T03:35:22.479Z,110.00
2019-01-31T03:36:08.468Z,111.20
2019-01-31T03:37:06.107Z,105.40
2019-01-31T03:37:45.542Z,100.37
2019-01-31T03:38:22.469Z,103.80
2019-01-31T03:39:17.194Z,104.47
2019-01-31T03:40:38.082Z,97.60
2019-01-31T03:41:23.324Z,99.40
2019-01-31T03:42:11.597Z,105.43
2019-01-31T03:43:09.372Z,106.63
2019-01-31T03:43:58.563Z,103.80
2019-01-31T03:44:38.242Z,104.73
2019-01-31T03:45:29.518Z,112.57
2019-01-31T03:46:38.200Z,110.60
2019-01-31T03:47:22.994Z,99.50
2019-01-31T03:47:59.882Z,113.27
2019-01-31T03:49:05.201Z,114.27
2019-01-31T03:49:42.070Z,106.27
2019-01-31T03:50:21.983Z,112.93
2019-01-31T03:51:04.582Z,112.57
2019-01-31T03:51:47.102Z,106.73
2019-01-31T03:52:46.480Z,121.27
2019-01-31T03:53:43.996Z,117.57
2019-01-31T03:54:37.321Z,114.97
2019-01-31T03:55:40.457Z,108.53
2019-01-31T03:56:46.122Z,105.17
2019-01-31T03:57:41.931Z,105.30
2019-01-31T03:58:30.650Z,97.03
2019-01-31T03:59:10.935Z,107.20
2019-01-31T03:59:44.971Z,107.30
2019-01-31T04:00:39.216Z,106.97
2019-01-31T04:01:47.746Z,102.40
2019-01-31T04:02:27.614Z,102.77
2019-01-31T04:03:04.505Z,104.27
2019-01-31T04:03:56.061Z,114.17
2019-01-31T04:04:53.454Z,110.93
2019-01-31T04:05:39.202Z,109.70
2019-01-31T04:06:15.021Z,122.57
2019-01-31T04:06:46.230Z,106.17
2019-01-31T04:07:17.400Z,110.47
2019-01-31T04:07:48.580Z,105.83
2019-01-31T04:08:19.780Z,108.00
2019-01-31T04:08:50.973Z,112.80
2019-01-31T04:09:22.140Z,118.37
2019-01-31T04:09:53.330Z,103.93
2019-01-31T04:10:24.719Z,109.43
2019-01-31T04:10:55.898Z,103.70
2019-01-31T04:11:27.072Z,108.53
2019-01-31T04:11:58.557Z,111.07
2019-01-31T04:12:29.760Z,108.13
2019-01-31T04:13:00.945Z,109.40
2019-01-31T04:13:32.528Z,115.83
2019-01-31T04:14:03.775Z,111.80
2019-01-31T04:14:34.965Z,99.73
2019-01-31T04:15:08.457Z,104.10
2019-01-31T04:15:39.677Z,107.83
2019-01-31T04:16:10.858Z,104.40
2019-01-31T04:16:43.046Z,107.67
2019-01-31T04:17:14.224Z,111.90
2019-01-31T04:17:45.413Z,112.97
2019-01-31T04:18:16.647Z,117.43
2019-01-31T04:18:47.808Z,120.07
2019-01-31T04:19:19.039Z,115.43
2019-01-31T04:19:50.196Z,110.97
2019-01-31T04:20:21.452Z,121.53
2019-01-31T04:20:52.619Z,122.33
2019-01-31T04:21:23.820Z,120.63
2019-01-31T04:21:55.017Z,121.47
2019-01-31T04:22:26.330Z,115.07
2019-01-31T04:22:57.508Z,119.70
2019-01-31T04:23:29.088Z,131.73
2019-01-31T04:24:00.246Z,129.17
2019-01-31T04:24:31.823Z,114.93
2019-01-31T04:25:03.428Z,109.53
2019-01-31T04:25:34.650Z,105.73
2019-01-31T04:26:07.714Z,103.07
2019-01-31T04:26:38.931Z,105.67
2019-01-31T04:27:10.107Z,109.00
2019-01-31T04:27:41.322Z,102.70
2019-01-31T04:28:12.483Z,106.07
2019-01-31T04:28:43.707Z,102.63
2019-01-31T04:29:14.888Z,106.43
2019-01-31T04:29:46.119Z,110.70
2019-01-31T04:30:17.383Z,106.57
2019-01-31T04:30:48.595Z,103.37
2019-01-31T04:31:19.814Z,103.13
2019-01-31T04:31:51.050Z,103.60
2019-01-31T04:32:22.280Z,97.47
2019-01-31T04:32:54.238Z,100.20
2019-01-31T04:33:25.484Z,100.50
2019-01-31T04:33:56.762Z,106.90
2019-01-31T04:34:27.984Z,104.77
2019-01-31T04:34:59.127Z,107.13
2019-01-31T04:35:30.345Z,110.43
2019-01-31T04:36:01.910Z,104.93
2019-01-31T04:36:33.129Z,114.97
2019-01-31T04:37:04.287Z,116.73
2019-01-31T04:37:35.503Z,119.20
2019-01-31T04:38:06.674Z,111.10
2019-01-31T04:38:37.883Z,115.87
2019-01-31T04:39:09.049Z,116.90
2019-01-31T04:39:40.251Z,126.00
2019-01-31T04:40:11.514Z,135.30
2019-01-31T04:40:42.715Z,109.37
2019-01-31T04:41:13.865Z,112.63
2019-01-31T04:41:46.083Z,113.40
2019-01-31T04:42:17.253Z,112.50
2019-01-31T04:42:48.495Z,114.23
2019-01-31T04:43:19.735Z,123.37
2019-01-31T04:43:50.931Z,125.60
2019-01-31T04:44:22.109Z,113.60
2019-01-31T04:44:53.348Z,117.30
2019-01-31T04:45:24.605Z,103.17
2019-01-31T04:45:55.879Z,110.60
2019-01-31T04:46:27.123Z,105.77
2019-01-31T04:46:58.780Z,118.70
2019-01-31T04:47:30.019Z,102.43
2019-01-31T04:48:01.304Z,102.50
2019-01-31T04:48:32.524Z,103.10
2019-01-31T04:49:03.686Z,107.37
2019-01-31T04:49:34.912Z,100.80
2019-01-31T04:50:10.871Z,99.57
2019-01-31T04:50:42.073Z,98.90
2019-01-31T04:51:13.224Z,94.90
2019-01-31T04:51:44.430Z,99.87
2019-01-31T04:52:15.600Z,99.93
2019-01-31T04:52:46.817Z,99.13
2019-01-31T04:53:17.972Z,105.70
2019-01-31T04:53:49.167Z,109.53
2019-01-31T04:54:20.344Z,105.83
2019-01-31T04:54:51.568Z,117.63
2019-01-31T04:55:22.799Z,107.83
2019-01-31T04:55:54.009Z,108.30
2019-01-31T04:56:25.159Z,113.20
2019-01-31T04:56:56.359Z,115.73
2019-01-31T04:57:27.529Z,118.57
2019-01-31T04:57:58.753Z,111.53
2019-01-31T04:58:29.901Z,100.03
2019-01-31T04:59:01.106Z,95.80
2019-01-31T04:59:32.311Z,103.50
2019-01-31T05:00:16.064Z,100.00
2019-01-31T05:00:47.239Z,98.77
2019-01-31T05:01:18.416Z,99.83
2019-01-31T05:01:49.600Z,97.80
2019-01-31T05:02:20.781Z,90.83
2019-01-31T05:02:51.966Z,96.70
2019-01-31T05:03:23.141Z,99.03
2019-01-31T05:03:54.348Z,96.83
2019-01-31T05:04:25.533Z,93.63
2019-01-31T05:04:56.688Z,99.80
2019-01-31T05:05:27.914Z,94.43
2019-01-31T05:05:59.107Z,88.93
2019-01-31T05:06:30.298Z,94.67
2019-01-31T05:07:01.762Z,101.13
2019-01-31T05:07:32.948Z,92.07
2019-01-31T05:08:04.188Z,97.27
2019-01-31T05:08:35.357Z,99.77
2019-01-31T05:09:06.585Z,102.10
2019-01-31T05:09:37.826Z,98.03
2019-01-31T05:10:11.606Z,108.43
2019-01-31T05:10:43.531Z,102.50
2019-01-31T05:11:14.847Z,99.77
2019-01-31T05:11:46.103Z,106.50
2019-01-31T05:12:17.400Z,106.97
2019-01-31T05:12:48.671Z,106.43
2019-01-31T05:13:19.904Z,102.67
2019-01-31T05:13:51.159Z,110.40
2019-01-31T05:14:22.356Z,104.00
2019-01-31T05:14:53.617Z,108.57
2019-01-31T05:15:24.807Z,95.17
2019-01-31T05:15:56.067Z,92.47
2019-01-31T05:16:27.318Z,97.43
2019-01-31T05:16:58.744Z,103.57
2019-01-31T05:17:29.934Z,92.90
2019-01-31T05:18:01.165Z,98.63
2019-01-31T05:18:32.358Z,94.87
2019-01-31T05:19:03.604Z,90.83
2019-01-31T05:19:34.775Z,96.03
2019-01-31T05:20:13.408Z,95.37
2019-01-31T05:20:44.609Z,90.27
2019-01-31T05:21:15.881Z,93.17
2019-01-31T05:21:47.061Z,94.13
2019-01-31T05:22:18.291Z,89.03
2019-01-31T05:22:49.483Z,90.10
2019-01-31T05:23:20.718Z,89.53
2019-01-31T05:23:51.915Z,91.73
2019-01-31T05:24:23.139Z,93.43
2019-01-31T05:24:55.368Z,90.47
2019-01-31T05:25:26.608Z,93.93
2019-01-31T05:25:57.817Z,93.87
2019-01-31T05:26:29.303Z,95.83
2019-01-31T05:27:00.542Z,98.13
2019-01-31T05:27:31.862Z,97.50
2019-01-31T05:28:03.112Z,99.87
2019-01-31T05:28:34.316Z,107.03
2019-01-31T05:29:05.512Z,103.47
2019-01-31T05:29:36.708Z,104.83
2019-01-31T05:30:14.036Z,103.93
2019-01-31T05:30:45.239Z,100.27
2019-01-31T05:31:16.446Z,100.87
2019-01-31T05:31:47.674Z,100.30
2019-01-31T05:32:18.935Z,94.17
2019-01-31T05:32:50.101Z,91.13
2019-01-31T05:33:21.276Z,94.13
2019-01-31T05:33:52.464Z,95.07
2019-01-31T05:34:23.658Z,95.23
2019-01-31T05:34:54.887Z,94.00
2019-01-31T05:35:26.046Z,93.40
2019-01-31T05:35:57.268Z,94.50
2019-01-31T05:36:28.433Z,96.93
2019-01-31T05:36:59.710Z,92.80
2019-01-31T05:37:30.876Z,94.80
2019-01-31T05:38:02.533Z,90.90
2019-01-31T05:38:33.695Z,93.30
2019-01-31T05:39:06.517Z,89.20
2019-01-31T05:39:37.673Z,93.03
2019-01-31T05:40:12.479Z,91.37
2019-01-31T05:40:54.398Z,89.37
2019-01-31T05:41:16.755Z,90.77
2019-01-31T05:41:47.913Z,92.10
2019-01-31T05:42:19.128Z,93.67
2019-01-31T05:42:50.279Z,92.60
2019-01-31T05:43:21.496Z,98.07
2019-01-31T05:43:52.662Z,94.07
2019-01-31T05:44:23.885Z,96.23
2019-01-31T05:44:55.047Z,104.97
2019-01-31T05:45:26.258Z,104.10
2019-01-31T05:45:57.424Z,103.13
2019-01-31T05:46:28.770Z,109.93
2019-01-31T05:46:59.920Z,99.03
2019-01-31T05:47:31.621Z,96.90
2019-01-31T05:48:02.792Z,95.47
2019-01-31T05:48:33.994Z,100.33
2019-01-31T05:49:05.187Z,90.67
2019-01-31T05:49:36.406Z,91.83
2019-01-31T05:50:11.278Z,94.80
2019-01-31T05:50:42.459Z,97.77
2019-01-31T05:51:13.655Z,93.57
2019-01-31T05:51:44.847Z,103.37
2019-01-31T05:52:16.063Z,99.40
2019-01-31T05:52:47.237Z,96.30
2019-01-31T05:53:18.434Z,101.17
2019-01-31T05:53:49.616Z,98.70
2019-01-31T05:54:20.789Z,97.77
2019-01-31T05:54:51.963Z,107.63
2019-01-31T05:55:23.158Z,111.23
2019-01-31T05:55:54.337Z,104.00
2019-01-31T05:56:25.532Z,108.10
2019-01-31T05:56:56.749Z,109.17
2019-01-31T05:57:27.925Z,106.10
2019-01-31T05:57:59.210Z,111.07
2019-01-31T05:58:30.399Z,114.50
2019-01-31T05:59:01.823Z,106.17
2019-01-31T05:59:33.010Z,112.93
2019-01-31T06:00:15.593Z,114.23
2019-01-31T06:00:46.899Z,99.57
2019-01-31T06:01:18.296Z,106.90
2019-01-31T06:01:49.557Z,116.97
2019-01-31T06:02:20.803Z,107.17
2019-01-31T06:02:52.063Z,113.33
2019-01-31T06:03:23.289Z,117.53
2019-01-31T06:03:54.544Z,113.87
2019-01-31T06:04:25.781Z,102.40
2019-01-31T06:04:57.014Z,95.97
2019-01-31T06:05:28.673Z,98.30
2019-01-31T06:05:59.827Z,94.27
2019-01-31T06:06:31.027Z,99.23
2019-01-31T06:07:10.920Z,105.37
2019-01-31T06:07:35.330Z,100.17
2019-01-31T06:08:06.521Z,100.57
2019-01-31T06:08:37.692Z,102.80
2019-01-31T06:09:08.891Z,101.23
2019-01-31T06:09:40.051Z,105.30
2019-01-31T06:10:11.757Z,104.77
2019-01-31T06:10:42.931Z,95.83
2019-01-31T06:11:14.115Z,99.53
2019-01-31T06:11:45.296Z,96.37
2019-01-31T06:12:16.477Z,100.30
2019-01-31T06:12:47.681Z,95.43
2019-01-31T06:13:18.871Z,99.70
2019-01-31T06:13:50.072Z,101.27
2019-01-31T06:14:21.258Z,102.67
2019-01-31T06:14:52.442Z,116.33
2019-01-31T06:15:23.653Z,104.13
2019-01-31T06:15:54.805Z,108.13
2019-01-31T06:16:26.044Z,104.33
2019-01-31T06:16:57.180Z,105.47
2019-01-31T06:17:28.808Z,140.10
2019-01-31T06:17:59.963Z,126.57
2019-01-31T06:18:31.639Z,139.50
2019-01-31T06:19:02.797Z,144.77
2019-01-31T06:19:34.023Z,136.07
2019-01-31T06:20:08.996Z,139.43
2019-01-31T06:20:40.199Z,124.07
2019-01-31T06:21:11.358Z,115.80
2019-01-31T06:21:42.586Z,108.17
2019-01-31T06:22:13.731Z,119.40
2019-01-31T06:22:44.941Z,107.97
2019-01-31T06:23:16.104Z,113.07
2019-01-31T06:23:47.317Z,107.87
2019-01-31T06:24:18.471Z,114.80
2019-01-31T06:24:49.698Z,112.57
2019-01-31T06:25:20.841Z,108.40
2019-01-31T06:25:52.073Z,108.70
2019-01-31T06:26:23.233Z,110.90
2019-01-31T06:26:54.439Z,102.73
2019-01-31T06:27:25.600Z,104.63
2019-01-31T06:27:56.799Z,106.67
2019-01-31T06:28:27.955Z,99.57
2019-01-31T06:28:59.519Z,102.53
2019-01-31T06:29:31.833Z,109.57
2019-01-31T06:30:08.243Z,107.27
2019-01-31T06:30:39.412Z,112.97
2019-01-31T06:31:10.664Z,107.67
2019-01-31T06:31:41.904Z,103.90
2019-01-31T06:32:13.140Z,111.70
2019-01-31T06:32:44.483Z,111.23
2019-01-31T06:33:15.736Z,106.53
2019-01-31T06:33:46.983Z,109.37
2019-01-31T06:34:18.225Z,111.40
2019-01-31T06:34:49.474Z,110.47
2019-01-31T06:35:20.728Z,113.93
2019-01-31T06:35:51.970Z,116.93
2019-01-31T06:36:23.300Z,123.17
2019-01-31T06:36:54.523Z,114.50
2019-01-31T06:37:25.684Z,103.60
2019-01-31T06:37:56.904Z,104.33
2019-01-31T06:38:28.063Z,103.47
2019-01-31T06:38:59.600Z,92.40
2019-01-31T06:39:30.749Z,95.40
2019-01-31T06:40:09.531Z,105.57
2019-01-31T06:40:40.721Z,103.03
2019-01-31T06:41:18.236Z,103.73
2019-01-31T06:41:45.112Z,100.37
2019-01-31T06:42:16.361Z,98.37
2019-01-31T06:42:47.822Z,101.30
2019-01-31T06:43:19.058Z,109.07
2019-01-31T06:43:50.319Z,107.10
2019-01-31T06:44:21.555Z,103.33
2019-01-31T06:44:52.815Z,103.23
2019-01-31T06:45:25.069Z,102.80
2019-01-31T06:45:56.469Z,108.93
2019-01-31T06:46:27.646Z,111.70
2019-01-31T06:46:59.408Z,111.90
2019-01-31T06:47:30.574Z,121.73
2019-01-31T06:48:05.032Z,126.63
2019-01-31T06:48:35.226Z,125.77
2019-01-31T06:49:06.436Z,125.17
2019-01-31T06:49:37.624Z,136.70
2019-01-31T06:50:08.766Z,128.43
2019-01-31T06:50:39.920Z,129.57
2019-01-31T06:51:11.108Z,126.80
2019-01-31T06:51:42.301Z,123.37
2019-01-31T06:52:13.445Z,128.23
2019-01-31T06:52:44.612Z,124.60
2019-01-31T06:53:15.757Z,128.63
2019-01-31T06:53:46.937Z,122.57
2019-01-31T06:54:18.115Z,130.50
2019-01-31T06:54:49.289Z,111.67
2019-01-31T06:55:20.467Z,101.00
2019-01-31T06:55:51.671Z,101.13
2019-01-31T06:56:22.831Z,106.63
2019-01-31T06:56:53.982Z,105.30
2019-01-31T06:57:25.166Z,104.47
2019-01-31T06:57:56.323Z,97.97
2019-01-31T06:58:27.495Z,100.13
2019-01-31T06:58:58.877Z,100.27
2019-01-31T06:59:30.042Z,107.00
2019-01-31T07:00:01.195Z,100.30
2019-01-31T07:00:32.368Z,102.40
2019-01-31T07:01:03.554Z,102.60
2019-01-31T07:01:34.698Z,90.40
2019-01-31T07:02:05.928Z,96.33
2019-01-31T07:02:37.076Z,102.33
2019-01-31T07:03:08.290Z,98.63
2019-01-31T07:03:39.478Z,98.03
2019-01-31T07:04:11.152Z,112.07
2019-01-31T07:04:42.347Z,113.00
2019-01-31T07:05:13.560Z,118.03
2019-01-31T07:05:44.732Z,114.17
2019-01-31T07:06:15.974Z,112.07
2019-01-31T07:06:47.118Z,116.03
2019-01-31T07:07:18.406Z,122.60
2019-01-31T07:07:49.671Z,132.90
2019-01-31T07:08:20.931Z,129.93
2019-01-31T07:08:52.187Z,139.80
2019-01-31T07:09:23.429Z,139.77
2019-01-31T07:09:54.785Z,149.13
2019-01-31T07:10:26.043Z,144.97
2019-01-31T07:10:57.290Z,143.07
2019-01-31T07:11:30.033Z,158.17
2019-01-31T07:12:02.000Z,148.87
2019-01-31T07:12:33.193Z,148.67
2019-01-31T07:13:04.357Z,137.87
2019-01-31T07:13:35.557Z,143.10
2019-01-31T07:14:06.734Z,148.70
2019-01-31T07:14:37.935Z,150.50
2019-01-31T07:15:10.709Z,144.87
2019-01-31T07:15:41.906Z,146.53
2019-01-31T07:16:13.086Z,153.57
2019-01-31T07:16:45.334Z,152.43
2019-01-31T07:17:18.354Z,161.53
2019-01-31T07:17:49.719Z,159.03
2019-01-31T07:18:20.934Z,162.20
2019-01-31T07:18:52.171Z,159.33
2019-01-31T07:19:23.376Z,165.80
2019-01-31T07:19:56.547Z,164.00
2019-01-31T07:20:27.680Z,160.50
2019-01-31T07:20:58.893Z,165.13
2019-01-31T07:21:30.073Z,166.10
2019-01-31T07:22:01.279Z,154.53
2019-01-31T07:22:32.466Z,156.10
2019-01-31T07:23:03.863Z,159.03
2019-01-31T07:23:35.057Z,159.23
2019-01-31T07:24:06.234Z,167.43
2019-01-31T07:24:37.416Z,159.90
2019-01-31T07:25:18.529Z,168.57
2019-01-31T07:25:49.798Z,168.07
2019-01-31T07:26:22.713Z,186.80
2019-01-31T07:26:54.011Z,175.53
2019-01-31T07:27:25.271Z,204.37
2019-01-31T07:27:56.427Z,197.47
2019-01-31T07:28:27.633Z,189.10
2019-01-31T07:28:59.151Z,194.37
2019-01-31T07:29:30.369Z,200.87
2019-01-31T07:30:01.639Z,197.13
2019-01-31T07:30:32.846Z,208.03
2019-01-31T07:31:04.103Z,203.60
2019-01-31T07:31:35.334Z,222.10
2019-01-31T07:32:06.512Z,250.83
2019-01-31T07:32:37.727Z,250.03
2019-01-31T07:33:08.884Z,240.97
2019-01-31T07:33:40.107Z,244.90
2019-01-31T07:34:11.277Z,222.80
2019-01-31T07:34:42.523Z,237.53
2019-01-31T07:35:13.943Z,241.70
2019-01-31T07:35:45.176Z,242.70
2019-01-31T07:36:16.407Z,229.83
2019-01-31T07:36:47.628Z,216.83
2019-01-31T07:37:18.795Z,209.90
2019-01-31T07:37:52.916Z,216.70
2019-01-31T07:38:23.073Z,197.20
2019-01-31T07:38:54.404Z,194.57
2019-01-31T07:39:25.655Z,187.77
2019-01-31T07:39:56.855Z,169.73
2019-01-31T07:40:28.024Z,154.60
2019-01-31T07:40:59.391Z,153.20
2019-01-31T07:41:40.656Z,150.67
2019-01-31T07:42:03.748Z,146.63
2019-01-31T07:42:34.989Z,150.83
2019-01-31T07:43:06.224Z,157.40
2019-01-31T07:43:37.449Z,157.77
2019-01-31T07:44:08.691Z,159.40
2019-01-31T07:44:39.920Z,153.50
2019-01-31T07:45:21.526Z,151.83
2019-01-31T07:45:52.780Z,147.80
2019-01-31T07:46:24.026Z,148.43
2019-01-31T07:46:55.250Z,145.07
2019-01-31T07:47:26.402Z,152.50
2019-01-31T07:47:57.602Z,157.43
2019-01-31T07:48:28.781Z,153.07
2019-01-31T07:49:00.030Z,147.33
2019-01-31T07:49:31.186Z,141.50
2019-01-31T07:50:10.882Z,134.80
2019-01-31T07:50:42.041Z,136.57
2019-01-31T07:51:13.286Z,144.80
2019-01-31T07:51:44.459Z,136.50
2019-01-31T07:52:15.888Z,126.03
2019-01-31T07:52:47.321Z,128.97
2019-01-31T07:53:18.571Z,134.30
2019-01-31T07:53:49.812Z,131.37
2019-01-31T07:54:21.049Z,134.60
2019-01-31T07:54:52.327Z,129.27
2019-01-31T07:55:23.565Z,132.93
2019-01-31T07:55:54.805Z,138.77
2019-01-31T07:56:26.070Z,139.73
2019-01-31T07:56:57.296Z,124.90
2019-01-31T07:57:28.756Z,130.90
2019-01-31T07:58:00.679Z,133.83
2019-01-31T07:58:31.982Z,138.80
2019-01-31T07:59:03.233Z,137.90
2019-01-31T07:59:34.397Z,139.97
2019-01-31T08:00:23.584Z,136.57
2019-01-31T08:00:54.739Z,115.37
2019-01-31T08:01:25.966Z,114.03
2019-01-31T08:01:57.166Z,111.40
2019-01-31T08:02:28.814Z,106.73
2019-01-31T08:03:00.078Z,111.07
2019-01-31T08:03:31.850Z,105.40
2019-01-31T08:04:03.418Z,106.63
2019-01-31T08:04:34.677Z,100.00
2019-01-31T08:05:10.956Z,98.27
2019-01-31T08:05:42.334Z,106.97
2019-01-31T08:06:13.585Z,103.63
2019-01-31T08:06:44.867Z,113.37
2019-01-31T08:07:16.121Z,105.70
2019-01-31T08:07:48.150Z,113.73
2019-01-31T08:08:19.408Z,113.00
2019-01-31T08:08:50.687Z,108.77
2019-01-31T08:09:21.868Z,108.63
2019-01-31T08:09:56.004Z,109.50
2019-01-31T08:10:34.183Z,118.60
2019-01-31T08:11:05.490Z,108.73
2019-01-31T08:11:36.673Z,108.47
2019-01-31T08:12:07.901Z,111.50
2019-01-31T08:12:39.073Z,112.87
2019-01-31T08:13:10.302Z,117.57
2019-01-31T08:13:41.459Z,116.83
2019-01-31T08:14:12.679Z,118.90
2019-01-31T08:14:43.830Z,110.57
2019-01-31T08:15:17.566Z,113.87
2019-01-31T08:15:49.721Z,119.10
2019-01-31T08:16:20.932Z,116.10